sensor_id;sensor_type;location;lat;lon;timestamp;P1;durP1;ratioP1;P2;durP2;ratioP2
51491;SDS011;37569;50.548;8.778;2022-12-07T00:02:39;24.8;;;15;;
51491;SDS011;37569;50.548;8.778;2022-12-07T00:07:39;27;;;15.2;;
51491;SDS011;37569;50.548;8.778;2022-12-07T00:12:39;26.4;;;14.8;;
51491;SDS011;37569;50.548;8.778;2022-12-07T00:17:40;23.2;;;14.9;;
51491;SDS011;37569;50.548;8.778;2022-12-07T00:22:40;25.2;;;15.1;;
51491;SDS011;37569;50.548;8.778;2022-12-07T00:27:40;24.4;;;15.1;;
51491;SDS011;37569;50.548;8.778;2022-12-07T00:32:40;26.8;;;16.5;;
51491;SDS011;37569;50.548;8.778;2022-12-07T00:37:40;27.7;;;16;;
51491;SDS011;37569;50.548;8.778;2022-12-07T00:42:40;26;;;15.2;;
51491;SDS011;37569;50.548;8.778;2022-12-07T00:47:41;27.3;;;16.7;;
51491;SDS011;37569;50.548;8.778;2022-12-07T00:52:41;30.8;;;16.6;;
51491;SDS011;37569;50.548;8.778;2022-12-07T00:57:41;26.4;;;16;;
51491;SDS011;37569;50.548;8.778;2022-12-07T01:02:41;29.6;;;18;;
51491;SDS011;37569;50.548;8.778;2022-12-07T01:07:41;30.3;;;16.5;;
51491;SDS011;37569;50.548;8.778;2022-12-07T01:12:41;29.9;;;17.8;;
51491;SDS011;37569;50.548;8.778;2022-12-07T01:17:42;31;;;18.1;;
51491;SDS011;37569;50.548;8.778;2022-12-07T01:22:42;31.6;;;18.5;;
51491;SDS011;37569;50.548;8.778;2022-12-07T01:27:42;31.5;;;19;;
51491;SDS011;37569;50.548;8.778;2022-12-07T01:32:42;32.9;;;18.3;;
51491;SDS011;37569;50.548;8.778;2022-12-07T01:37:42;31.5;;;18.1;;
51491;SDS011;37569;50.548;8.778;2022-12-07T01:42:42;28.4;;;17.4;;
51491;SDS011;37569;50.548;8.778;2022-12-07T01:47:43;28;;;16.8;;
51491;SDS011;37569;50.548;8.778;2022-12-07T01:52:43;25.8;;;15;;
51491;SDS011;37569;50.548;8.778;2022-12-07T01:57:44;25.3;;;15.4;;
51491;SDS011;37569;50.548;8.778;2022-12-07T02:02:45;25;;;13.9;;
51491;SDS011;37569;50.548;8.778;2022-12-07T02:07:43;21.9;;;13;;
51491;SDS011;37569;50.548;8.778;2022-12-07T02:12:44;20.2;;;12.5;;
51491;SDS011;37569;50.548;8.778;2022-12-07T02:17:45;21.6;;;12.5;;
51491;SDS011;37569;50.548;8.778;2022-12-07T02:22:51;18.2;;;12.1;;
51491;SDS011;37569;50.548;8.778;2022-12-07T02:27:45;20.9;;;12.1;;
51491;SDS011;37569;50.548;8.778;2022-12-07T02:32:47;18.9;;;12;;
51491;SDS011;37569;50.548;8.778;2022-12-07T02:37:48;18.5;;;12;;
51491;SDS011;37569;50.548;8.778;2022-12-07T02:42:45;18.5;;;11.6;;
51491;SDS011;37569;50.548;8.778;2022-12-07T02:47:45;18.4;;;12.2;;
51491;SDS011;37569;50.548;8.778;2022-12-07T02:52:45;18.1;;;11.6;;
51491;SDS011;37569;50.548;8.778;2022-12-07T02:57:49;20;;;11.6;;
51491;SDS011;37569;50.548;8.778;2022-12-07T03:02:48;18.6;;;11.5;;
51491;SDS011;37569;50.548;8.778;2022-12-07T03:07:48;18;;;11.7;;
51491;SDS011;37569;50.548;8.778;2022-12-07T03:12:48;17.4;;;11.2;;
51491;SDS011;37569;50.548;8.778;2022-12-07T03:17:46;17.3;;;11.1;;
51491;SDS011;37569;50.548;8.778;2022-12-07T03:22:46;18.2;;;11.3;;
51491;SDS011;37569;50.548;8.778;2022-12-07T03:27:48;18.9;;;11.9;;
51491;SDS011;37569;50.548;8.778;2022-12-07T03:32:48;17;;;11;;
51491;SDS011;37569;50.548;8.778;2022-12-07T03:37:48;15;;;10.5;;
51491;SDS011;37569;50.548;8.778;2022-12-07T03:42:47;15.6;;;10.5;;
51491;SDS011;37569;50.548;8.778;2022-12-07T03:47:47;16.8;;;11.4;;
51491;SDS011;37569;50.548;8.778;2022-12-07T03:52:48;18;;;11.8;;
51491;SDS011;37569;50.548;8.778;2022-12-07T03:57:48;17.7;;;11.7;;
51491;SDS011;37569;50.548;8.778;2022-12-07T04:02:48;18;;;11.9;;
51491;SDS011;37569;50.548;8.778;2022-12-07T04:07:48;17.7;;;12.4;;
51491;SDS011;37569;50.548;8.778;2022-12-07T04:12:48;18.2;;;12.5;;
51491;SDS011;37569;50.548;8.778;2022-12-07T04:17:48;18.4;;;11.8;;
51491;SDS011;37569;50.548;8.778;2022-12-07T04:22:48;17.4;;;11.6;;
51491;SDS011;37569;50.548;8.778;2022-12-07T04:27:48;20.2;;;12;;
51491;SDS011;37569;50.548;8.778;2022-12-07T04:32:48;18.6;;;11.5;;
51491;SDS011;37569;50.548;8.778;2022-12-07T04:37:49;18;;;11.8;;
51491;SDS011;37569;50.548;8.778;2022-12-07T04:42:49;19.6;;;11.8;;
51491;SDS011;37569;50.548;8.778;2022-12-07T04:47:49;18.6;;;11.4;;
51491;SDS011;37569;50.548;8.778;2022-12-07T04:52:49;18.4;;;11.9;;
51491;SDS011;37569;50.548;8.778;2022-12-07T04:57:49;18.5;;;12;;
51491;SDS011;37569;50.548;8.778;2022-12-07T05:02:49;19.7;;;12.2;;
51491;SDS011;37569;50.548;8.778;2022-12-07T05:07:50;20.1;;;13;;
51491;SDS011;37569;50.548;8.778;2022-12-07T05:12:50;20.7;;;12.6;;
51491;SDS011;37569;50.548;8.778;2022-12-07T05:17:50;21.4;;;12.7;;
51491;SDS011;37569;50.548;8.778;2022-12-07T05:22:50;20.1;;;13.1;;
51491;SDS011;37569;50.548;8.778;2022-12-07T05:27:50;22.9;;;14.1;;
51491;SDS011;37569;50.548;8.778;2022-12-07T05:32:51;23;;;14;;
51491;SDS011;37569;50.548;8.778;2022-12-07T05:37:51;23.4;;;13.3;;
51491;SDS011;37569;50.548;8.778;2022-12-07T05:42:51;25;;;14.6;;
51491;SDS011;37569;50.548;8.778;2022-12-07T05:47:51;24.7;;;14.8;;
51491;SDS011;37569;50.548;8.778;2022-12-07T05:52:51;24.4;;;14.2;;
51491;SDS011;37569;50.548;8.778;2022-12-07T05:57:52;24.9;;;14.8;;
51491;SDS011;37569;50.548;8.778;2022-12-07T06:02:52;25.8;;;14.4;;
51491;SDS011;37569;50.548;8.778;2022-12-07T06:07:52;25.7;;;14.9;;
51491;SDS011;37569;50.548;8.778;2022-12-07T06:12:52;23.7;;;15;;
51491;SDS011;37569;50.548;8.778;2022-12-07T06:17:52;25;;;14.6;;
51491;SDS011;37569;50.548;8.778;2022-12-07T06:22:53;28;;;15.8;;
51491;SDS011;37569;50.548;8.778;2022-12-07T06:27:53;28.3;;;15.9;;
51491;SDS011;37569;50.548;8.778;2022-12-07T06:32:53;26.1;;;15.3;;
51491;SDS011;37569;50.548;8.778;2022-12-07T06:37:53;27.3;;;16.1;;
51491;SDS011;37569;50.548;8.778;2022-12-07T06:42:53;28.5;;;16.7;;
51491;SDS011;37569;50.548;8.778;2022-12-07T06:47:54;25.5;;;15.6;;
51491;SDS011;37569;50.548;8.778;2022-12-07T06:52:54;25.9;;;15.5;;
51491;SDS011;37569;50.548;8.778;2022-12-07T06:57:54;25.5;;;15.1;;
51491;SDS011;37569;50.548;8.778;2022-12-07T07:02:54;24.5;;;14.4;;
51491;SDS011;37569;50.548;8.778;2022-12-07T07:07:54;22.3;;;13.9;;
51491;SDS011;37569;50.548;8.778;2022-12-07T07:12:55;22.9;;;13;;
51491;SDS011;37569;50.548;8.778;2022-12-07T07:17:55;20.1;;;12.3;;
51491;SDS011;37569;50.548;8.778;2022-12-07T07:22:55;19.3;;;11.7;;
51491;SDS011;37569;50.548;8.778;2022-12-07T07:27:55;17.1;;;11;;
51491;SDS011;37569;50.548;8.778;2022-12-07T07:32:56;19.7;;;11.4;;
51491;SDS011;37569;50.548;8.778;2022-12-07T07:37:56;22.1;;;13;;
51491;SDS011;37569;50.548;8.778;2022-12-07T07:42:56;24.8;;;13.2;;
51491;SDS011;37569;50.548;8.778;2022-12-07T07:47:56;26;;;14.5;;
51491;SDS011;37569;50.548;8.778;2022-12-07T07:52:56;27;;;14.7;;
51491;SDS011;37569;50.548;8.778;2022-12-07T07:57:56;33.8;;;19.1;;
51491;SDS011;37569;50.548;8.778;2022-12-07T08:02:57;32;;;18.9;;
51491;SDS011;37569;50.548;8.778;2022-12-07T08:07:57;27.2;;;16.9;;
51491;SDS011;37569;50.548;8.778;2022-12-07T08:12:57;23.9;;;15;;
51491;SDS011;37569;50.548;8.778;2022-12-07T08:17:57;23.7;;;14.1;;
51491;SDS011;37569;50.548;8.778;2022-12-07T08:22:57;22.9;;;13.9;;
51491;SDS011;37569;50.548;8.778;2022-12-07T08:27:58;21.9;;;14.7;;
51491;SDS011;37569;50.548;8.778;2022-12-07T08:32:58;21.8;;;14;;
51491;SDS011;37569;50.548;8.778;2022-12-07T08:37:58;22.9;;;13.9;;
51491;SDS011;37569;50.548;8.778;2022-12-07T08:42:58;20.1;;;12.8;;
51491;SDS011;37569;50.548;8.778;2022-12-07T08:48:00;20.9;;;13;;
51491;SDS011;37569;50.548;8.778;2022-12-07T08:52:59;19;;;13;;
51491;SDS011;37569;50.548;8.778;2022-12-07T08:57:59;23.9;;;14.7;;
51491;SDS011;37569;50.548;8.778;2022-12-07T09:02:59;21.8;;;13.2;;
51491;SDS011;37569;50.548;8.778;2022-12-07T09:08:00;19.2;;;12.8;;
51491;SDS011;37569;50.548;8.778;2022-12-07T09:12:59;18.9;;;12.2;;
51491;SDS011;37569;50.548;8.778;2022-12-07T09:18:00;18.5;;;11.3;;
51491;SDS011;37569;50.548;8.778;2022-12-07T09:23:00;21;;;11.3;;
51491;SDS011;37569;50.548;8.778;2022-12-07T09:28:00;18.5;;;11.4;;
51491;SDS011;37569;50.548;8.778;2022-12-07T09:33:00;13.7;;;9.8;;
51491;SDS011;37569;50.548;8.778;2022-12-07T09:38:00;14.6;;;9.4;;
51491;SDS011;37569;50.548;8.778;2022-12-07T09:43:01;15;;;9.2;;
51491;SDS011;37569;50.548;8.778;2022-12-07T09:48:02;14.2;;;8.5;;
51491;SDS011;37569;50.548;8.778;2022-12-07T09:53:04;8.9;;;6.4;;
51491;SDS011;37569;50.548;8.778;2022-12-07T09:58:02;11.7;;;7.2;;
51491;SDS011;37569;50.548;8.778;2022-12-07T10:03:02;11.4;;;7.6;;
51491;SDS011;37569;50.548;8.778;2022-12-07T10:08:02;13.4;;;9.1;;
51491;SDS011;37569;50.548;8.778;2022-12-07T10:13:03;12;;;8.6;;
51491;SDS011;37569;50.548;8.778;2022-12-07T10:18:03;13.3;;;8.2;;
51491;SDS011;37569;50.548;8.778;2022-12-07T10:23:03;13.2;;;8.6;;
51491;SDS011;37569;50.548;8.778;2022-12-07T10:28:10;11.7;;;8.6;;
51491;SDS011;37569;50.548;8.778;2022-12-07T10:33:03;11.4;;;7.3;;
51491;SDS011;37569;50.548;8.778;2022-12-07T10:38:07;8.3;;;6;;
51491;SDS011;37569;50.548;8.778;2022-12-07T10:43:05;8.6;;;5.3;;
51491;SDS011;37569;50.548;8.778;2022-12-07T10:48:05;7.3;;;4.1;;
51491;SDS011;37569;50.548;8.778;2022-12-07T10:53:10;7.8;;;4.2;;
51491;SDS011;37569;50.548;8.778;2022-12-07T10:58:12;6.8;;;3.9;;
51491;SDS011;37569;50.548;8.778;2022-12-07T11:03:09;8.6;;;4.5;;
51491;SDS011;37569;50.548;8.778;2022-12-07T11:08:12;6.9;;;4.4;;
51491;SDS011;37569;50.548;8.778;2022-12-07T11:13:12;5.8;;;3.8;;
51491;SDS011;37569;50.548;8.778;2022-12-07T11:18:07;6.5;;;4.1;;
51491;SDS011;37569;50.548;8.778;2022-12-07T11:23:10;9.6;;;5.5;;
51491;SDS011;37569;50.548;8.778;2022-12-07T11:28:11;9.2;;;5;;
51491;SDS011;37569;50.548;8.778;2022-12-07T11:33:10;6.4;;;4.6;;
51491;SDS011;37569;50.548;8.778;2022-12-07T11:38:08;7.4;;;4.4;;
51491;SDS011;37569;50.548;8.778;2022-12-07T11:43:11;5.4;;;3.5;;
51491;SDS011;37569;50.548;8.778;2022-12-07T11:48:09;5.1;;;3.3;;
51491;SDS011;37569;50.548;8.778;2022-12-07T11:53:10;4.4;;;2.9;;
51491;SDS011;37569;50.548;8.778;2022-12-07T11:58:14;8;;;3.2;;
51491;SDS011;37569;50.548;8.778;2022-12-07T12:03:09;5.9;;;3.6;;
51491;SDS011;37569;50.548;8.778;2022-12-07T12:08:12;5.8;;;3.2;;
51491;SDS011;37569;50.548;8.778;2022-12-07T12:13:16;4.6;;;2.6;;
51491;SDS011;37569;50.548;8.778;2022-12-07T12:18:16;5.4;;;2.5;;
51491;SDS011;37569;50.548;8.778;2022-12-07T12:23:11;7.2;;;3.3;;
51491;SDS011;37569;50.548;8.778;2022-12-07T12:28:19;7.4;;;3.3;;
51491;SDS011;37569;50.548;8.778;2022-12-07T12:33:13;4.9;;;2.5;;
51491;SDS011;37569;50.548;8.778;2022-12-07T12:38:27;4;;;2.2;;
51491;SDS011;37569;50.548;8.778;2022-12-07T12:44:38;6.4;;;3;;
51491;SDS011;37569;50.548;8.778;2022-12-07T12:48:27;5;;;2.5;;
51491;SDS011;37569;50.548;8.778;2022-12-07T12:53:14;6.9;;;2.6;;
51491;SDS011;37569;50.548;8.778;2022-12-07T12:58:43;7.6;;;2.8;;
51491;SDS011;37569;50.548;8.778;2022-12-07T13:03:20;4.6;;;2.6;;
51491;SDS011;37569;50.548;8.778;2022-12-07T13:08:13;8.6;;;4.5;;
51491;SDS011;37569;50.548;8.778;2022-12-07T13:13:44;7.2;;;3.5;;
51491;SDS011;37569;50.548;8.778;2022-12-07T13:18:22;5.2;;;3.4;;
51491;SDS011;37569;50.548;8.778;2022-12-07T13:23:13;5.6;;;2.7;;
51491;SDS011;37569;50.548;8.778;2022-12-07T13:28:14;8.3;;;4.1;;
51491;SDS011;37569;50.548;8.778;2022-12-07T13:33:13;7.7;;;4;;
51491;SDS011;37569;50.548;8.778;2022-12-07T13:38:19;7.5;;;3.1;;
51491;SDS011;37569;50.548;8.778;2022-12-07T13:43:14;6.7;;;3.1;;
51491;SDS011;37569;50.548;8.778;2022-12-07T13:48:14;4.4;;;3;;
51491;SDS011;37569;50.548;8.778;2022-12-07T13:53:18;6.3;;;3.1;;
51491;SDS011;37569;50.548;8.778;2022-12-07T13:58:14;8.1;;;2.8;;
51491;SDS011;37569;50.548;8.778;2022-12-07T14:03:25;5.9;;;2.5;;
51491;SDS011;37569;50.548;8.778;2022-12-07T14:08:21;4.5;;;2.6;;
51491;SDS011;37569;50.548;8.778;2022-12-07T14:13:23;5.8;;;2.1;;
51491;SDS011;37569;50.548;8.778;2022-12-07T14:18:24;5;;;2;;
51491;SDS011;37569;50.548;8.778;2022-12-07T14:23:21;5.7;;;2;;
51491;SDS011;37569;50.548;8.778;2022-12-07T14:28:24;4.4;;;2.3;;
51491;SDS011;37569;50.548;8.778;2022-12-07T14:33:16;3.4;;;2.2;;
51491;SDS011;37569;50.548;8.778;2022-12-07T14:38:16;10.1;;;4.6;;
51491;SDS011;37569;50.548;8.778;2022-12-07T14:43:17;8.5;;;3.8;;
51491;SDS011;37569;50.548;8.778;2022-12-07T14:48:17;10.1;;;4.9;;
51491;SDS011;37569;50.548;8.778;2022-12-07T14:53:18;11.1;;;6.3;;
51491;SDS011;37569;50.548;8.778;2022-12-07T14:58:17;10.1;;;5.4;;
51491;SDS011;37569;50.548;8.778;2022-12-07T15:03:18;9.6;;;5.3;;
51491;SDS011;37569;50.548;8.778;2022-12-07T15:08:18;13.5;;;7.2;;
51491;SDS011;37569;50.548;8.778;2022-12-07T15:13:18;10.7;;;4.9;;
51491;SDS011;37569;50.548;8.778;2022-12-07T15:18:18;8.3;;;4;;
51491;SDS011;37569;50.548;8.778;2022-12-07T15:23:18;7.4;;;4.2;;
51491;SDS011;37569;50.548;8.778;2022-12-07T15:28:19;7.8;;;4.5;;
51491;SDS011;37569;50.548;8.778;2022-12-07T15:33:19;7.4;;;5.1;;
51491;SDS011;37569;50.548;8.778;2022-12-07T15:38:19;8.1;;;5;;
51491;SDS011;37569;50.548;8.778;2022-12-07T15:43:19;10.3;;;5.7;;
51491;SDS011;37569;50.548;8.778;2022-12-07T15:48:19;8.4;;;5.9;;
51491;SDS011;37569;50.548;8.778;2022-12-07T15:53:20;9.9;;;6.2;;
51491;SDS011;37569;50.548;8.778;2022-12-07T15:58:20;8.9;;;6.6;;
51491;SDS011;37569;50.548;8.778;2022-12-07T16:03:20;10.8;;;5.8;;
51491;SDS011;37569;50.548;8.778;2022-12-07T16:08:20;10.6;;;6.2;;
51491;SDS011;37569;50.548;8.778;2022-12-07T16:13:20;15.9;;;9.1;;
51491;SDS011;37569;50.548;8.778;2022-12-07T16:18:21;4.1;;;3.1;;
51491;SDS011;37569;50.548;8.778;2022-12-07T16:23:21;4.2;;;2.9;;
51491;SDS011;37569;50.548;8.778;2022-12-07T16:28:21;4.5;;;2.6;;
51491;SDS011;37569;50.548;8.778;2022-12-07T16:33:22;6.9;;;2.7;;
51491;SDS011;37569;50.548;8.778;2022-12-07T16:38:22;4.4;;;2.7;;
51491;SDS011;37569;50.548;8.778;2022-12-07T16:43:21;5.2;;;3;;
51491;SDS011;37569;50.548;8.778;2022-12-07T16:48:22;6;;;3.1;;
51491;SDS011;37569;50.548;8.778;2022-12-07T16:53:23;5.4;;;3.2;;
51491;SDS011;37569;50.548;8.778;2022-12-07T16:58:22;4.9;;;3.1;;
51491;SDS011;37569;50.548;8.778;2022-12-07T17:03:22;6.6;;;3.5;;
51491;SDS011;37569;50.548;8.778;2022-12-07T17:08:22;6.3;;;3.5;;
51491;SDS011;37569;50.548;8.778;2022-12-07T17:13:23;6.2;;;4;;
51491;SDS011;37569;50.548;8.778;2022-12-07T17:18:23;6.8;;;3.7;;
51491;SDS011;37569;50.548;8.778;2022-12-07T17:23:23;6.2;;;3.7;;
51491;SDS011;37569;50.548;8.778;2022-12-07T17:28:23;5.5;;;3.8;;
51491;SDS011;37569;50.548;8.778;2022-12-07T17:33:23;4.3;;;3.7;;
51491;SDS011;37569;50.548;8.778;2022-12-07T17:38:24;6.5;;;4.8;;
51491;SDS011;37569;50.548;8.778;2022-12-07T17:43:24;9;;;4.7;;
51491;SDS011;37569;50.548;8.778;2022-12-07T17:48:24;7.5;;;4.5;;
51491;SDS011;37569;50.548;8.778;2022-12-07T17:53:24;8.1;;;5.3;;
51491;SDS011;37569;50.548;8.778;2022-12-07T17:58:24;8.4;;;5.4;;
51491;SDS011;37569;50.548;8.778;2022-12-07T18:03:25;10.3;;;5.9;;
51491;SDS011;37569;50.548;8.778;2022-12-07T18:08:25;9.3;;;5.7;;
51491;SDS011;37569;50.548;8.778;2022-12-07T18:13:25;8;;;6;;
51491;SDS011;37569;50.548;8.778;2022-12-07T18:18:25;10.1;;;7.2;;
51491;SDS011;37569;50.548;8.778;2022-12-07T18:23:25;13.9;;;8.6;;
51491;SDS011;37569;50.548;8.778;2022-12-07T18:28:26;14.9;;;9.2;;
51491;SDS011;37569;50.548;8.778;2022-12-07T18:33:26;13.9;;;8.5;;
51491;SDS011;37569;50.548;8.778;2022-12-07T18:38:26;12.5;;;7.2;;
51491;SDS011;37569;50.548;8.778;2022-12-07T18:43:26;12.4;;;6.5;;
51491;SDS011;37569;50.548;8.778;2022-12-07T18:48:26;10.3;;;6.5;;
51491;SDS011;37569;50.548;8.778;2022-12-07T18:53:29;11.3;;;6.9;;
51491;SDS011;37569;50.548;8.778;2022-12-07T18:58:26;12.3;;;7.5;;
51491;SDS011;37569;50.548;8.778;2022-12-07T19:03:27;14.4;;;7.1;;
51491;SDS011;37569;50.548;8.778;2022-12-07T19:08:27;10.5;;;6.9;;
51491;SDS011;37569;50.548;8.778;2022-12-07T19:13:27;11.3;;;6.8;;
51491;SDS011;37569;50.548;8.778;2022-12-07T19:18:27;10.4;;;7;;
51491;SDS011;37569;50.548;8.778;2022-12-07T19:23:27;12.6;;;7.4;;
51491;SDS011;37569;50.548;8.778;2022-12-07T19:28:28;15.8;;;7.9;;
51491;SDS011;37569;50.548;8.778;2022-12-07T19:33:28;15.5;;;8.5;;
51491;SDS011;37569;50.548;8.778;2022-12-07T19:38:28;13.3;;;8.5;;
51491;SDS011;37569;50.548;8.778;2022-12-07T19:43:28;16.9;;;9.1;;
51491;SDS011;37569;50.548;8.778;2022-12-07T19:48:28;14.7;;;8.9;;
51491;SDS011;37569;50.548;8.778;2022-12-07T19:53:30;14.1;;;9;;
51491;SDS011;37569;50.548;8.778;2022-12-07T19:58:29;17.7;;;10;;
51491;SDS011;37569;50.548;8.778;2022-12-07T20:03:29;25.9;;;14.1;;
51491;SDS011;37569;50.548;8.778;2022-12-07T20:08:29;18.5;;;9.9;;
51491;SDS011;37569;50.548;8.778;2022-12-07T20:13:29;16.7;;;9.5;;
51491;SDS011;37569;50.548;8.778;2022-12-07T20:18:29;17.1;;;9.9;;
51491;SDS011;37569;50.548;8.778;2022-12-07T20:23:29;11.4;;;7.6;;
51491;SDS011;37569;50.548;8.778;2022-12-07T20:28:29;12.9;;;7.2;;
51491;SDS011;37569;50.548;8.778;2022-12-07T20:33:30;11.9;;;7;;
51491;SDS011;37569;50.548;8.778;2022-12-07T20:38:30;11.5;;;6.4;;
51491;SDS011;37569;50.548;8.778;2022-12-07T20:43:30;13.5;;;6.5;;
51491;SDS011;37569;50.548;8.778;2022-12-07T20:48:30;12.7;;;6.5;;
51491;SDS011;37569;50.548;8.778;2022-12-07T20:53:30;12.8;;;6.6;;
51491;SDS011;37569;50.548;8.778;2022-12-07T20:58:30;9.7;;;6.5;;
51491;SDS011;37569;50.548;8.778;2022-12-07T21:03:31;13.9;;;6.1;;
51491;SDS011;37569;50.548;8.778;2022-12-07T21:08:31;12.2;;;6;;
51491;SDS011;37569;50.548;8.778;2022-12-07T21:13:31;10.9;;;6.4;;
51491;SDS011;37569;50.548;8.778;2022-12-07T21:18:31;13;;;6.7;;
51491;SDS011;37569;50.548;8.778;2022-12-07T21:23:32;12.7;;;6.4;;
51491;SDS011;37569;50.548;8.778;2022-12-07T21:28:32;10.8;;;6.8;;
51491;SDS011;37569;50.548;8.778;2022-12-07T21:33:32;11.2;;;7;;
51491;SDS011;37569;50.548;8.778;2022-12-07T21:38:32;13.3;;;7.3;;
51491;SDS011;37569;50.548;8.778;2022-12-07T21:43:32;13.5;;;7.3;;
51491;SDS011;37569;50.548;8.778;2022-12-07T21:48:32;11.4;;;7.3;;
51491;SDS011;37569;50.548;8.778;2022-12-07T21:53:33;11.9;;;6.8;;
51491;SDS011;37569;50.548;8.778;2022-12-07T21:58:33;11.9;;;6.3;;
51491;SDS011;37569;50.548;8.778;2022-12-07T22:03:33;13.3;;;6.7;;
51491;SDS011;37569;50.548;8.778;2022-12-07T22:08:33;11.9;;;6.7;;
51491;SDS011;37569;50.548;8.778;2022-12-07T22:13:35;12.4;;;7.3;;
51491;SDS011;37569;50.548;8.778;2022-12-07T22:18:33;10;;;6.6;;
51491;SDS011;37569;50.548;8.778;2022-12-07T22:23:34;10.2;;;6.9;;
51491;SDS011;37569;50.548;8.778;2022-12-07T22:28:35;11.4;;;6.8;;
51491;SDS011;37569;50.548;8.778;2022-12-07T22:33:34;10.6;;;6.8;;
51491;SDS011;37569;50.548;8.778;2022-12-07T22:38:34;11.7;;;7.1;;
51491;SDS011;37569;50.548;8.778;2022-12-07T22:43:34;11.3;;;6.7;;
51491;SDS011;37569;50.548;8.778;2022-12-07T22:48:34;11.2;;;7.1;;
51491;SDS011;37569;50.548;8.778;2022-12-07T22:53:35;13;;;7.5;;
51491;SDS011;37569;50.548;8.778;2022-12-07T22:58:35;12.2;;;7.6;;
51491;SDS011;37569;50.548;8.778;2022-12-07T23:03:35;11;;;7.1;;
51491;SDS011;37569;50.548;8.778;2022-12-07T23:08:35;13.5;;;7.5;;
51491;SDS011;37569;50.548;8.778;2022-12-07T23:13:36;12.6;;;7.8;;
51491;SDS011;37569;50.548;8.778;2022-12-07T23:18:36;12.9;;;7.7;;
51491;SDS011;37569;50.548;8.778;2022-12-07T23:23:36;11.5;;;8.1;;
51491;SDS011;37569;50.548;8.778;2022-12-07T23:28:36;13;;;7.8;;
51491;SDS011;37569;50.548;8.778;2022-12-07T23:33:36;11.7;;;8;;
51491;SDS011;37569;50.548;8.778;2022-12-07T23:38:37;15.6;;;8.4;;
51491;SDS011;37569;50.548;8.778;2022-12-07T23:43:37;14.2;;;8.4;;
51491;SDS011;37569;50.548;8.778;2022-12-07T23:48:37;12.9;;;8;;
51491;SDS011;37569;50.548;8.778;2022-12-07T23:53:38;14;;;8.4;;
51491;SDS011;37569;50.548;8.778;2022-12-07T23:58:37;12.1;;;8.1;;
